Time;durP1;ratioP1;P1;durP2;ratioP2;P2;SDS_P1;SDS_P2;PMS_P1;PMS_P2;Temp;Humidity;BMP_temperature;BMP_pressure;BME280_temperature;BME280_humidity;BME280_pressure;Samples;Min_cycle;Max_cycle;Signal;HPM_P1;HPM_P2
2023/05/10 00:02:58;;;;;;;1999.90;999.90;;;13.40;99.90;;;;;;5013898;28;20091;-79
2023/05/10 00:06:03;;;;;;;1999.90;999.90;;;13.40;99.90;;;;;;5014116;28;20038;-74
2023/05/10 00:08:43;;;;;;;1999.90;999.90;;;13.40;99.90;;;;;;5013108;28;20064;-74
2023/05/10 00:11:11;;;;;;;1999.90;999.90;;;13.50;99.90;;;;;;5015542;28;20029;-74
2023/05/10 00:13:52;;;;;;;1999.90;999.90;;;13.50;99.90;;;;;;5014028;28;20033;-78
2023/05/10 00:16:32;;;;;;;1999.90;999.90;;;13.50;99.90;;;;;;5015573;28;20025;-78
2023/05/10 00:19:18;;;;;;;1999.90;999.90;;;13.50;99.90;;;;;;5013648;28;20022;-74
2023/05/10 00:22:01;;;;;;;1999.90;999.90;;;13.50;99.90;;;;;;5014602;28;20087;-78
2023/05/10 00:24:42;;;;;;;1999.90;999.90;;;13.40;99.90;;;;;;5012940;28;20030;-78
2023/05/10 00:27:17;;;;;;;1999.90;999.90;;;13.30;99.90;;;;;;5014109;28;20044;-74
2023/05/10 00:30:07;;;;;;;1999.90;999.90;;;13.30;99.90;;;;;;5014354;28;20073;-73
2023/05/10 00:32:45;;;;;;;1999.90;999.90;;;13.40;99.90;;;;;;5014104;28;20037;-73
2023/05/10 00:35:23;;;;;;;1999.90;999.90;;;13.40;99.90;;;;;;5014197;28;20056;-74
2023/05/10 00:37:59;;;;;;;1999.90;999.90;;;13.50;99.90;;;;;;5015440;28;20021;-74
2023/05/10 00:40:37;;;;;;;1999.90;999.90;;;13.50;99.90;;;;;;5013475;28;20022;-74
2023/05/10 00:43:14;;;;;;;1999.90;999.90;;;13.50;99.90;;;;;;5013137;28;20034;-78
2023/05/10 00:45:43;;;;;;;1999.90;999.90;;;13.50;99.90;;;;;;5013655;28;20030;-74
2023/05/10 00:48:24;;;;;;;1999.90;999.90;;;13.40;99.90;;;;;;5015035;28;20061;-74
2023/05/10 00:51:15;;;;;;;1999.90;999.90;;;13.40;99.90;;;;;;5012787;28;20045;-78
2023/05/10 00:53:59;;;;;;;1999.90;999.90;;;13.40;99.90;;;;;;5026574;28;20037;-78
2023/05/10 00:56:37;;;;;;;1999.90;999.90;;;13.30;99.90;;;;;;5032466;28;20041;-78
2023/05/10 00:59:27;;;;;;;1999.90;999.90;;;13.30;99.90;;;;;;5034883;28;20030;-73
2023/05/10 01:02:08;;;;;;;1999.90;999.90;;;13.20;99.90;;;;;;5033655;28;20036;-79
2023/05/10 01:04:45;;;;;;;1999.90;999.90;;;13.30;99.90;;;;;;5033313;28;20456;-75
2023/05/10 01:07:13;;;;;;;1999.90;999.90;;;13.30;99.90;;;;;;5033305;28;20075;-79
2023/05/10 01:10:12;;;;;;;1999.90;999.90;;;13.30;99.90;;;;;;5032108;28;20025;-73
2023/05/10 01:12:59;;;;;;;1999.90;999.90;;;13.30;99.90;;;;;;5032757;28;20116;-74
2023/05/10 01:15:25;;;;;;;1999.90;999.90;;;13.30;99.90;;;;;;5033173;28;20025;-73
2023/05/10 01:18:16;;;;;;;1999.90;999.90;;;13.30;99.90;;;;;;5032532;28;20029;-78
2023/05/10 01:21:08;;;;;;;1999.90;999.90;;;13.30;99.90;;;;;;5031026;28;20400;-78
2023/05/10 01:24:26;;;;;;;1999.90;999.90;;;13.30;99.90;;;;;;5032143;28;20021;-74
2023/05/10 01:27:24;;;;;;;1999.90;999.90;;;13.40;99.90;;;;;;5033847;28;20393;-74
2023/05/10 01:29:58;;;;;;;1999.90;999.90;;;13.40;99.90;;;;;;5025676;28;20116;-73
2023/05/10 01:32:55;;;;;;;1999.90;999.90;;;13.30;99.90;;;;;;5032498;28;20030;-78
2023/05/10 01:35:33;;;;;;;1999.90;999.90;;;13.30;99.90;;;;;;5032162;28;20128;-79
2023/05/10 01:38:27;;;;;;;1999.90;999.90;;;13.20;99.90;;;;;;5032077;28;20017;-74
2023/05/10 01:41:14;;;;;;;1999.90;999.90;;;13.20;99.90;;;;;;5031987;28;20032;-78
2023/05/10 01:44:17;;;;;;;1999.90;999.90;;;13.30;99.90;;;;;;5031144;28;20032;-78
2023/05/10 01:47:24;;;;;;;1999.90;999.90;;;13.20;99.90;;;;;;5005550;28;20034;-74
2023/05/10 01:50:22;;;;;;;1999.90;999.90;;;13.10;99.90;;;;;;5043735;28;20017;-74
2023/05/10 01:53:13;;;;;;;1999.90;999.90;;;13.30;99.90;;;;;;5039747;28;20037;-74
2023/05/10 01:56:06;;;;;;;1999.90;999.90;;;13.20;99.90;;;;;;5053194;28;20055;-74
2023/05/10 01:58:49;;;;;;;1999.90;999.90;;;13.30;99.90;;;;;;5034671;28;20040;-78
2023/05/10 02:01:16;;;;;;;1999.90;999.90;;;13.20;99.90;;;;;;5053663;28;20033;-78
2023/05/10 02:03:56;;;;;;;1999.90;999.90;;;13.20;99.90;;;;;;5035468;28;20029;-74
2023/05/10 02:06:35;;;;;;;1999.90;999.90;;;13.10;99.90;;;;;;5034936;28;20120;-74
2023/05/10 02:09:14;;;;;;;1999.90;999.90;;;13.10;99.90;;;;;;5050806;28;20047;-78
2023/05/10 02:12:07;;;;;;;1999.90;999.90;;;13.10;99.90;;;;;;5053514;28;20067;-78
2023/05/10 02:14:35;;;;;;;1999.90;999.90;;;13.10;99.90;;;;;;5053311;28;20048;-78
2023/05/10 02:17:18;;;;;;;1999.90;999.90;;;13.10;99.90;;;;;;5034768;28;20052;-74
2023/05/10 02:20:01;;;;;;;1999.90;999.90;;;13.00;99.90;;;;;;5034442;28;20025;-78
2023/05/10 02:22:30;;;;;;;1999.90;999.90;;;13.10;99.90;;;;;;5053297;28;20029;-79
2023/05/10 02:25:23;;;;;;;1999.90;999.90;;;13.10;99.90;;;;;;5035420;28;20071;-78
2023/05/10 02:27:54;;;;;;;1999.90;999.90;;;13.10;99.90;;;;;;5035151;28;20029;-74
2023/05/10 02:30:56;;;;;;;1999.90;999.90;;;13.00;99.90;;;;;;5033931;28;20486;-78
2023/05/10 02:33:25;;;;;;;1999.90;999.90;;;13.00;99.90;;;;;;5034848;28;20024;-74
2023/05/10 02:35:54;;;;;;;1999.90;999.90;;;13.10;99.90;;;;;;5035097;28;20036;-74
2023/05/10 02:38:32;;;;;;;1999.90;999.90;;;13.10;99.90;;;;;;5034499;28;20071;-78
2023/05/10 02:41:12;;;;;;;1999.90;999.90;;;13.10;99.90;;;;;;5033735;28;20029;-78
2023/05/10 02:44:06;;;;;;;1999.90;999.90;;;13.10;99.90;;;;;;5034280;28;20049;-74
2023/05/10 02:47:06;;;;;;;1999.90;999.90;;;13.10;99.90;;;;;;5014910;28;20037;-73
2023/05/10 02:49:53;;;;;;;1999.90;999.90;;;13.00;99.90;;;;;;5032811;28;20430;-78
2023/05/10 02:52:27;;;;;;;1999.90;999.90;;;13.10;99.90;;;;;;5032607;28;20032;-78
2023/05/10 02:55:47;;;;;;;1999.90;999.90;;;13.10;99.90;;;;;;5016650;28;20049;-74
2023/05/10 02:58:38;;;;;;;1999.90;999.90;;;13.10;99.90;;;;;;5014673;28;20116;-74
2023/05/10 03:01:07;;;;;;;1999.90;999.90;;;13.10;99.90;;;;;;5014689;28;20037;-78
2023/05/10 03:03:42;;;;;;;1999.90;999.90;;;13.10;99.90;;;;;;5014640;28;20046;-79
2023/05/10 03:06:08;;;;;;;1999.90;999.90;;;13.10;99.90;;;;;;5032984;28;20107;-78
2023/05/10 03:09:14;;;;;;;1999.90;999.90;;;13.10;99.90;;;;;;5026563;28;20086;-73
2023/05/10 03:11:54;;;;;;;1999.90;999.90;;;13.20;99.90;;;;;;5033844;28;20040;-77
2023/05/10 03:14:53;;;;;;;1999.90;999.90;;;13.20;99.90;;;;;;5033470;28;20033;-77
2023/05/10 03:17:30;;;;;;;1999.90;999.90;;;13.30;99.90;;;;;;5051774;28;20106;-77
2023/05/10 03:20:23;;;;;;;1999.90;999.90;;;13.20;99.90;;;;;;5034385;28;20025;-73
2023/05/10 03:23:12;;;;;;;1999.90;999.90;;;13.10;99.90;;;;;;5033532;28;20504;-77
2023/05/10 03:26:03;;;;;;;1999.90;999.90;;;13.00;99.90;;;;;;5071522;28;20028;-77
2023/05/10 03:28:53;;;;;;;1999.90;999.90;;;12.90;99.90;;;;;;5054361;28;20029;-77
2023/05/10 03:31:32;;;;;;;1999.90;999.90;;;12.80;99.90;;;;;;5053907;28;20547;-77
2023/05/10 03:34:23;;;;;;;1999.90;999.90;;;12.80;99.90;;;;;;5053850;28;20078;-72
2023/05/10 03:37:11;;;;;;;1999.90;999.90;;;12.70;99.90;;;;;;5072263;28;20056;-77
2023/05/10 03:39:48;;;;;;;1999.90;999.90;;;12.70;99.90;;;;;;5053842;28;20029;-77
2023/05/10 03:42:46;;;;;;;1999.90;999.90;;;12.70;99.90;;;;;;5053858;28;20502;-73
2023/05/10 03:45:22;;;;;;;1999.90;999.90;;;12.60;99.90;;;;;;5053285;28;20029;-77
2023/05/10 03:48:15;;;;;;;1999.90;999.90;;;12.60;99.90;;;;;;5054571;28;20024;-73
2023/05/10 03:51:21;;;;;;;1999.90;999.90;;;12.50;99.90;;;;;;5033618;28;20045;-73
2023/05/10 03:53:49;;;;;;;1999.90;999.90;;;12.40;99.90;;;;;;4999647;28;20058;-77
2023/05/10 03:56:15;;;;;;;1999.90;999.90;;;12.30;99.90;;;;;;4996700;28;20030;-77
2023/05/10 03:59:08;;;;;;;1999.90;999.90;;;12.30;99.90;;;;;;4996397;28;20023;-72
2023/05/10 04:01:35;;;;;;;1999.90;999.90;;;12.30;99.90;;;;;;4995219;28;20026;-72
2023/05/10 04:04:18;;;;;;;1999.90;999.90;;;12.20;99.90;;;;;;4994526;28;20035;-77
2023/05/10 04:06:54;;;;;;;1999.90;999.90;;;12.20;99.90;;;;;;4995041;28;20408;-77
2023/05/10 04:09:44;;;;;;;1999.90;999.90;;;12.30;99.90;;;;;;5012285;28;20022;-77
2023/05/10 04:12:38;;;;;;;1999.90;999.90;;;12.30;99.90;;;;;;5013747;28;20052;-73
2023/05/10 04:15:31;;;;;;;1999.90;999.90;;;12.40;99.90;;;;;;5015529;28;20034;-73
2023/05/10 04:18:24;;;;;;;1999.90;999.90;;;12.40;99.90;;;;;;5013778;28;20017;-77
2023/05/10 04:21:02;;;;;;;1999.90;999.90;;;12.40;99.90;;;;;;5015182;28;20109;-77
2023/05/10 04:23:28;;;;;;;1999.90;999.90;;;12.40;99.90;;;;;;5014249;28;20032;-77
2023/05/10 04:26:27;;;;;;;1999.90;999.90;;;12.30;99.90;;;;;;5013895;28;20033;-73
2023/05/10 04:29:23;;;;;;;1999.90;999.90;;;12.20;99.90;;;;;;5013844;28;20034;-77
2023/05/10 04:32:17;;;;;;;1999.90;999.90;;;12.30;99.90;;;;;;5013317;28;20034;-73
2023/05/10 04:34:56;;;;;;;1999.90;999.90;;;12.30;99.90;;;;;;5015175;28;20030;-77
2023/05/10 04:37:47;;;;;;;1999.90;999.90;;;12.40;99.90;;;;;;5013600;28;20018;-77
2023/05/10 04:40:37;;;;;;;1999.90;999.90;;;12.40;99.90;;;;;;5015226;28;20034;-72
2023/05/10 04:43:26;;;;;;;1999.90;999.90;;;12.50;99.90;;;;;;5013632;28;20511;-72
2023/05/10 04:46:29;;;;;;;1999.90;999.90;;;12.60;99.90;;;;;;5012446;28;20040;-78
2023/05/10 04:49:08;;;;;;;1999.90;999.90;;;12.70;99.90;;;;;;5012973;28;20087;-77
2023/05/10 04:51:46;;;;;;;1999.90;999.90;;;12.70;99.90;;;;;;5014013;28;20624;-77
2023/05/10 04:54:16;;;;;;;1999.90;999.90;;;12.80;99.90;;;;;;5013142;28;20409;-73
2023/05/10 04:57:03;;;;;;;1999.90;999.90;;;12.80;99.90;;;;;;5011178;28;20500;-76
2023/05/10 04:59:53;;;;;;;1999.90;999.90;;;12.80;99.90;;;;;;5013473;28;20485;-76
2023/05/10 05:02:53;;;;;;;1999.90;999.90;;;12.50;99.90;;;;;;5021752;28;20053;-75
2023/05/10 05:05:35;;;;;;;1999.90;999.90;;;12.30;99.90;;;;;;4993799;28;20053;-72
2023/05/10 05:08:29;;;;;;;1999.90;999.90;;;12.30;99.90;;;;;;4999562;28;20029;-73
2023/05/10 05:10:57;;;;;;;1999.90;999.90;;;12.20;99.90;;;;;;4996726;28;20025;-76
2023/05/10 05:13:49;;;;;;;1999.90;999.90;;;12.20;99.90;;;;;;5013323;28;20397;-76
2023/05/10 05:16:39;;;;;;;1999.90;999.90;;;12.20;99.90;;;;;;5014589;28;20084;-72
2023/05/10 05:19:27;;;;;;;1999.90;999.90;;;12.30;99.90;;;;;;5013193;28;20443;-72
2023/05/10 05:22:16;;;;;;;1999.90;999.90;;;12.20;99.90;;;;;;5012784;28;20041;-76
2023/05/10 05:25:11;;;;;;;1999.90;999.90;;;12.20;99.90;;;;;;5011509;28;20532;-76
2023/05/10 05:28:13;;;;;;;1999.90;999.90;;;12.20;99.90;;;;;;5029297;28;20125;-76
2023/05/10 05:30:41;;;;;;;1999.90;999.90;;;12.20;99.90;;;;;;5031760;28;20515;-73
2023/05/10 05:33:11;;;;;;;1999.90;999.90;;;12.20;99.90;;;;;;4994497;28;20070;-73
2023/05/10 05:36:01;;;;;;;1999.90;999.90;;;12.30;99.90;;;;;;5009940;28;20081;-77
2023/05/10 05:38:41;;;;;;;1999.90;999.90;;;12.50;99.90;;;;;;5006969;28;20029;-77
2023/05/10 05:41:08;;;;;;;1999.90;999.90;;;12.50;99.90;;;;;;5006954;28;20096;-73
2023/05/10 05:44:00;;;;;;;1999.90;999.90;;;12.40;99.90;;;;;;5010826;28;20025;-73
2023/05/10 05:46:36;;;;;;;1999.90;999.90;;;12.30;99.90;;;;;;5008805;28;20049;-73
2023/05/10 05:49:20;;;;;;;1999.90;999.90;;;12.30;99.90;;;;;;5012821;28;20547;-77
2023/05/10 05:52:15;;;;;;;1999.90;999.90;;;12.40;99.90;;;;;;5011691;28;20041;-77
2023/05/10 05:55:04;;;;;;;1999.90;999.90;;;12.30;99.90;;;;;;5009526;28;20046;-72
2023/05/10 05:57:55;;;;;;;1999.90;999.90;;;12.40;99.90;;;;;;5009569;28;20552;-73
2023/05/10 06:00:53;;;;;;;1999.90;999.90;;;12.60;99.90;;;;;;5001644;28;20469;-73
2023/05/10 06:03:33;;;;;;;1999.90;999.90;;;12.60;99.90;;;;;;5008172;28;20386;-76
2023/05/10 06:06:22;;;;;;;1999.90;999.90;;;12.70;99.90;;;;;;5007278;28;20496;-73
2023/05/10 06:08:58;;;;;;;1999.90;999.90;;;12.70;99.90;;;;;;5008145;28;20065;-74
2023/05/10 06:11:30;;;;;;;1999.90;999.90;;;12.80;99.90;;;;;;5006607;28;20503;-73
2023/05/10 06:14:20;;;;;;;1999.90;999.90;;;12.90;99.90;;;;;;5006156;28;20026;-76
2023/05/10 06:17:11;;;;;;;1999.90;999.90;;;13.00;99.90;;;;;;5007364;28;20025;-77
2023/05/10 06:19:57;;;;;;;1999.90;999.90;;;13.00;99.90;;;;;;5006924;28;20033;-75
2023/05/10 06:22:55;;;;;;;1999.90;999.90;;;12.90;99.90;;;;;;5003573;28;20562;-72
2023/05/10 06:25:56;;;;;;;1999.90;999.90;;;12.70;99.90;;;;;;5009435;28;20018;-73
2023/05/10 06:28:25;;;;;;;1999.90;999.90;;;12.70;99.90;;;;;;5004096;28;20104;-75
2023/05/10 06:30:50;;;;;;;1999.90;999.90;;;12.70;99.90;;;;;;5009547;28;20030;-74
2023/05/10 06:33:16;;;;;;;1999.90;999.90;;;12.90;99.90;;;;;;5009227;28;20034;-76
2023/05/10 06:35:42;;;;;;;1999.90;999.90;;;12.90;99.90;;;;;;5009553;28;20106;-73
2023/05/10 06:38:07;;;;;;;1999.90;999.90;;;12.90;99.90;;;;;;5000585;28;20038;-72
2023/05/10 06:40:33;;;;;;;1999.90;999.90;;;13.00;99.90;;;;;;5009450;28;20054;-76
2023/05/10 06:42:58;;;;;;;1999.90;999.90;;;13.30;99.90;;;;;;5006989;28;20552;-73
2023/05/10 06:45:24;;;;;;;1999.90;999.90;;;13.50;99.90;;;;;;5006253;28;20025;-73
2023/05/10 06:47:50;;;;;;;1999.90;999.90;;;13.70;99.90;;;;;;5007463;28;20428;-76
2023/05/10 06:50:15;;;;;;;1999.90;999.90;;;13.90;99.90;;;;;;5007583;28;20030;-72
2023/05/10 06:52:41;;;;;;;1999.90;999.90;;;14.10;99.90;;;;;;5008146;28;20064;-78
2023/05/10 06:55:08;;;;;;;1999.90;999.90;;;14.50;99.90;;;;;;5008535;28;20029;-78
2023/05/10 06:57:33;;;;;;;1999.90;999.90;;;14.80;99.90;;;;;;5011311;28;20030;-77
2023/05/10 06:59:59;;;;;;;1999.90;999.90;;;14.60;99.90;;;;;;5006788;28;20052;-77
2023/05/10 07:02:25;;;;;;;1999.90;999.90;;;14.80;99.90;;;;;;5006670;28;20040;-76
2023/05/10 07:05:01;;;;;;;1999.90;999.90;;;14.70;99.90;;;;;;5003426;28;20026;-72
2023/05/10 07:07:30;;;;;;;1999.90;999.90;;;14.50;99.90;;;;;;5017192;28;20079;-77
2023/05/10 07:10:09;;;;;;;1999.90;999.90;;;13.90;99.90;;;;;;5003452;28;20084;-77
2023/05/10 07:12:35;;;;;;;1999.90;999.90;;;13.40;99.90;;;;;;5003403;28;20072;-77
2023/05/10 07:15:00;;;;;;;1999.90;999.90;;;13.00;99.90;;;;;;5005022;28;20073;-71
2023/05/10 07:17:26;;;;;;;1999.90;999.90;;;12.80;99.90;;;;;;5006416;28;20468;-71
2023/05/10 07:19:51;;;;;;;1999.90;999.90;;;12.80;99.90;;;;;;5003425;28;20061;-76
2023/05/10 07:22:17;;;;;;;1999.90;999.90;;;12.80;99.90;;;;;;5008262;28;20069;-75
2023/05/10 07:24:43;;;;;;;1999.90;999.90;;;12.70;99.90;;;;;;5011567;28;20034;-72
2023/05/10 07:27:09;;;;;;;1999.90;999.90;;;12.70;99.90;;;;;;5017062;28;20117;-71
2023/05/10 07:29:35;;;;;;;1999.90;999.90;;;12.70;99.90;;;;;;5010909;28;20033;-72
2023/05/10 07:32:01;;;;;;;1999.90;999.90;;;12.90;99.90;;;;;;5009679;28;20026;-75
2023/05/10 07:34:27;;;;;;;1999.90;999.90;;;12.90;99.90;;;;;;5009542;28;20064;-76
2023/05/10 07:36:53;;;;;;;1999.90;999.90;;;12.90;99.90;;;;;;5013911;28;20030;-76
2023/05/10 07:39:20;;;;;;;1999.90;999.90;;;13.00;99.90;;;;;;5011367;28;20382;-77
2023/05/10 07:41:45;;;;;;;1999.90;999.90;;;13.20;99.90;;;;;;5010380;28;20022;-73
2023/05/10 07:44:11;;;;;;;1999.90;999.90;;;13.60;99.90;;;;;;5011149;28;20517;-73
2023/05/10 07:46:37;;;;;;;1999.90;999.90;;;14.80;99.90;;;;;;5017372;28;20033;-73
2023/05/10 07:49:02;;;;;;;1999.90;999.90;;;16.80;99.90;;;;;;5021817;28;20567;-79
2023/05/10 07:51:28;;;;;;;1999.90;999.90;;;20.00;99.90;;;;;;5010395;28;20034;-73
2023/05/10 07:53:54;;;;;;;1999.90;999.90;;;21.40;99.90;;;;;;5040822;28;20033;-73
2023/05/10 07:56:31;;;;;;;1999.90;999.90;;;19.90;99.90;;;;;;5030285;28;20028;-79
2023/05/10 07:59:00;;;;;;;1999.90;999.90;;;20.90;99.90;;;;;;5052118;28;20086;-74
2023/05/10 08:01:26;;;;;;;1999.90;999.90;;;21.30;99.90;;;;;;5047556;28;20061;-72
2023/05/10 08:03:53;;;;;;;1999.90;999.90;;;19.80;99.90;;;;;;5048473;28;20035;-72
2023/05/10 08:06:19;;;;;;;1999.90;999.90;;;17.00;99.90;;;;;;5044520;28;20108;-72
2023/05/10 08:08:50;;;;;;;1999.90;999.90;;;15.30;99.90;;;;;;5048155;28;20083;-72
2023/05/10 08:11:20;;;;;;;1999.90;999.90;;;14.60;99.90;;;;;;5049445;28;20091;-72
2023/05/10 08:13:47;;;;;;;1999.90;999.90;;;15.80;99.90;;;;;;5054128;28;20029;-77
2023/05/10 08:16:12;;;;;;;1999.90;999.90;;;19.30;99.90;;;;;;5050997;28;20032;-77
2023/05/10 08:18:38;;;;;;;1999.90;999.90;;;20.30;99.90;;;;;;5050408;28;20025;-78
2023/05/10 08:21:04;;;;;;;1999.90;999.90;;;20.40;99.90;;;;;;5047687;28;20104;-73
2023/05/10 08:23:30;;;;;;;1999.90;999.90;;;19.10;99.90;;;;;;5051442;28;20143;-73
2023/05/10 08:25:56;;;;;;;1999.90;999.90;;;20.50;99.90;;;;;;5056497;28;20061;-73
2023/05/10 08:28:21;;;;;;;1999.90;999.90;;;22.70;99.90;;;;;;5049401;28;20033;-78
2023/05/10 08:30:47;;;;;;;1999.90;999.90;;;20.70;99.90;;;;;;5049288;28;20033;-77
2023/05/10 08:33:13;;;;;;;1999.90;999.90;;;18.40;99.90;;;;;;5039453;28;20237;-73
2023/05/10 08:35:38;;;;;;;1999.90;999.90;;;16.90;99.90;;;;;;5037997;28;20033;-72
2023/05/10 08:38:04;;;;;;;1999.90;999.90;;;17.30;99.90;;;;;;5052728;28;20053;-78
2023/05/10 08:40:30;;;;;;;1999.90;999.90;;;19.20;99.90;;;;;;5049024;28;20060;-78
2023/05/10 08:43:10;;;;;;;1999.90;999.90;;;18.30;99.90;;;;;;5049343;28;20028;-78
2023/05/10 08:45:42;;;;;;;1999.90;999.90;;;20.00;99.90;;;;;;5049942;28;20035;-73
2023/05/10 08:48:09;;;;;;;1999.90;999.90;;;20.80;99.90;;;;;;5047882;28;20365;-78
2023/05/10 08:50:40;;;;;;;1999.90;999.90;;;21.00;99.90;;;;;;5050584;28;20033;-76
2023/05/10 08:53:13;;;;;;;1999.90;999.90;;;20.30;99.90;;;;;;5050030;28;20044;-72
2023/05/10 08:55:40;;;;;;;1999.90;999.90;;;21.50;99.90;;;;;;5049593;28;20033;-78
2023/05/10 08:58:06;;;;;;;1999.90;999.90;;;23.30;99.90;;;;;;5048778;28;20025;-72
2023/05/10 09:00:32;;;;;;;1999.90;999.90;;;23.30;99.90;;;;;;5048394;28;20090;-72
2023/05/10 09:02:59;;;;;;;1999.90;999.90;;;23.90;99.90;;;;;;5047581;28;20033;-73
2023/05/10 09:05:25;;;;;;;1999.90;999.90;;;22.00;99.90;;;;;;5055519;28;20079;-79
2023/05/10 09:07:51;;;;;;;1999.90;999.90;;;19.00;99.90;;;;;;5061732;28;20028;-79
2023/05/10 09:10:17;;;;;;;1999.90;999.90;;;17.30;99.90;;;;;;5049335;28;20033;-79
2023/05/10 09:12:45;;;;;;;1999.90;999.90;;;16.30;99.90;;;;;;5032333;28;20029;-74
2023/05/10 09:15:19;;;;;;;1999.90;999.90;;;15.80;99.90;;;;;;5048802;28;20079;-74
2023/05/10 09:17:45;;;;;;;1999.90;999.90;;;16.20;99.90;;;;;;5044261;28;20029;-80
2023/05/10 09:20:11;;;;;;;1999.90;999.90;;;17.40;99.90;;;;;;5044608;28;20025;-73
2023/05/10 09:22:37;;;;;;;1999.90;999.90;;;18.60;99.90;;;;;;5044643;28;20415;-77
2023/05/10 09:25:13;;;;;;;1999.90;999.90;;;21.50;99.90;;;;;;5048877;28;20057;-73
2023/05/10 09:27:41;;;;;;;1999.90;999.90;;;22.50;99.90;;;;;;5048461;28;20071;-72
2023/05/10 09:30:08;;;;;;;1999.90;999.90;;;20.80;99.90;;;;;;5049161;28;20087;-78
2023/05/10 09:32:41;;;;;;;1999.90;999.90;;;19.50;99.90;;;;;;5048059;28;20056;-76
2023/05/10 09:35:10;;;;;;;;;;;20.10;99.90;;;;;;5049814;28;20116;-73
2023/05/10 09:37:36;;;;;;;1999.90;999.90;;;20.20;99.90;;;;;;5050963;28;19912;-73
2023/05/10 09:40:05;;;;;;;1999.90;999.90;;;20.50;99.90;;;;;;5049182;28;20029;-73
2023/05/10 09:42:31;;;;;;;1999.90;999.90;;;21.90;99.90;;;;;;5047314;28;20024;-78
2023/05/10 09:45:04;;;;;;;1999.90;999.90;;;21.50;99.90;;;;;;5053188;28;20037;-73
2023/05/10 09:47:33;;;;;;;1999.90;999.90;;;21.20;99.90;;;;;;5047602;28;20024;-78
2023/05/10 09:50:03;;;;;;;1999.90;999.90;;;22.70;99.90;;;;;;5046905;28;20522;-73
2023/05/10 09:52:47;;;;;;;1999.90;999.90;;;23.30;99.90;;;;;;5048431;28;20072;-73
2023/05/10 09:55:13;;;;;;;1999.90;999.90;;;22.80;99.90;;;;;;5047060;28;20427;-78
2023/05/10 09:57:39;;;;;;;1999.90;999.90;;;22.70;99.90;;;;;;5048690;28;20519;-78
2023/05/10 10:00:06;;;;;;;1999.90;999.90;;;23.40;99.90;;;;;;5048526;28;20028;-78
2023/05/10 10:02:32;;;;;;;1999.90;999.90;;;23.60;99.90;;;;;;5047841;28;20094;-77
2023/05/10 10:05:00;;;;;;;1999.90;999.90;;;24.10;99.90;;;;;;5049051;28;20496;-73
2023/05/10 10:07:27;;;;;;;1999.90;999.90;;;25.00;99.90;;;;;;5043306;28;20182;-73
2023/05/10 10:09:53;;;;;;;1999.90;999.90;;;24.10;99.90;;;;;;5048448;28;20440;-77
2023/05/10 10:12:20;;;;;;;1999.90;999.90;;;23.40;99.90;;;;;;5039466;28;20024;-77
2023/05/10 10:14:48;;;;;;;1999.90;999.90;;;23.30;99.90;;;;;;5031017;28;20029;-74
2023/05/10 10:17:14;;;;;;;1999.90;999.90;;;23.80;99.90;;;;;;5031025;28;20070;-73
2023/05/10 10:19:41;;;;;;;1999.90;999.90;;;22.60;99.90;;;;;;5047784;28;20033;-73
2023/05/10 10:22:07;;;;;;;1999.90;999.90;;;23.30;99.90;;;;;;5048263;28;20052;-73
2023/05/10 10:24:32;;;;;;;1999.90;999.90;;;23.70;99.90;;;;;;5047564;28;20069;-78
2023/05/10 10:27:19;;;;;;;1999.90;999.90;;;22.70;99.90;;;;;;5047805;28;20511;-78
2023/05/10 10:30:00;;;;;;;1999.90;999.90;;;21.60;99.90;;;;;;5044883;28;20032;-72
2023/05/10 10:32:42;;;;;;;1999.90;999.90;;;19.30;99.90;;;;;;5045237;28;20025;-72
2023/05/10 10:35:09;;;;;;;1999.90;999.90;;;20.80;99.90;;;;;;5048051;28;20033;-77
2023/05/10 10:37:46;;;;;;;1999.90;999.90;;;19.80;99.90;;;;;;5048161;28;20067;-73
2023/05/10 10:40:28;;;;;;;1999.90;999.90;;;20.10;99.90;;;;;;5048107;28;20037;-78
2023/05/10 10:42:54;;;;;;;1999.90;999.90;;;20.50;99.90;;;;;;5046229;28;20032;-78
2023/05/10 10:45:21;;;;;;;1999.90;999.90;;;21.20;99.90;;;;;;5051729;28;20366;-72
2023/05/10 10:47:47;;;;;;;1999.90;999.90;;;19.80;99.90;;;;;;5048350;28;20025;-77
2023/05/10 10:50:12;;;;;;;1999.90;999.90;;;19.30;99.90;;;;;;5046664;28;20083;-73
2023/05/10 10:52:45;;;;;;;1999.90;999.90;;;18.20;99.90;;;;;;5019948;28;20301;-76
2023/05/10 10:55:12;;;;;;;1999.90;999.90;;;17.70;99.90;;;;;;4997101;28;20041;-73
2023/05/10 10:57:41;;;;;;;1999.90;999.90;;;19.70;99.90;;;;;;5006851;28;20477;-73
2023/05/10 11:00:24;;;;;;;1999.90;999.90;;;20.50;99.90;;;;;;5014686;28;20076;-72
2023/05/10 11:03:06;;;;;;;1999.90;999.90;;;19.90;99.90;;;;;;5006218;28;20034;-73
2023/05/10 11:05:41;;;;;;;1999.90;999.90;;;20.70;99.90;;;;;;5004781;28;20045;-78
2023/05/10 11:08:08;;;;;;;1999.90;999.90;;;21.40;99.90;;;;;;5007160;28;20030;-73
2023/05/10 11:10:34;;;;;;;1999.90;999.90;;;21.90;99.90;;;;;;5007151;28;20038;-73
2023/05/10 11:13:05;;;;;;;1999.90;999.90;;;21.40;99.90;;;;;;5006323;28;20041;-72
2023/05/10 11:15:36;;;;;;;1999.90;999.90;;;21.50;99.90;;;;;;5008331;28;20022;-78
2023/05/10 11:18:18;;;;;;;1999.90;999.90;;;21.50;99.90;;;;;;5005701;28;20077;-78
2023/05/10 11:20:49;;;;;;;1999.90;999.90;;;22.10;99.90;;;;;;5006009;28;20054;-73
2023/05/10 11:23:15;;;;;;;1999.90;999.90;;;21.70;99.90;;;;;;5004651;28;20109;-72
2023/05/10 11:25:44;;;;;;;1999.90;999.90;;;22.00;99.90;;;;;;5007837;28;20026;-78
2023/05/10 11:28:12;;;;;;;1999.90;999.90;;;22.00;99.90;;;;;;5007806;28;20022;-78
2023/05/10 11:30:43;;;;;;;1999.90;999.90;;;22.00;99.90;;;;;;5002465;28;20034;-73
2023/05/10 11:33:09;;;;;;;1999.90;999.90;;;22.00;99.90;;;;;;5008064;28;20057;-78
2023/05/10 11:35:39;;;;;;;1999.90;999.90;;;21.80;99.90;;;;;;5007144;28;20374;-73
2023/05/10 11:38:11;;;;;;;1999.90;999.90;;;21.00;99.90;;;;;;5002610;28;20030;-78
2023/05/10 11:40:37;;;;;;;1999.90;999.90;;;19.30;99.90;;;;;;5007525;28;20501;-76
2023/05/10 11:43:04;;;;;;;1999.90;999.90;;;18.70;99.90;;;;;;5006268;28;20336;-77
2023/05/10 11:45:32;;;;;;;1999.90;999.90;;;18.50;99.90;;;;;;5007973;28;20044;-78
2023/05/10 11:47:59;;;;;;;1999.90;999.90;;;19.60;99.90;;;;;;5004306;28;20026;-77
2023/05/10 11:50:25;;;;;;;1999.90;999.90;;;20.00;99.90;;;;;;4994726;28;20106;-72
2023/05/10 11:52:56;;;;;;;1999.90;999.90;;;19.80;99.90;;;;;;4996796;28;20421;-77
2023/05/10 11:55:23;;;;;;;1999.90;999.90;;;19.00;99.90;;;;;;5003701;28;20018;-77
2023/05/10 11:57:52;;;;;;;1999.90;999.90;;;18.60;99.90;;;;;;5010336;28;20429;-77
2023/05/10 12:00:17;;;;;;;1999.90;999.90;;;18.30;99.90;;;;;;5005419;28;20026;-72
2023/05/10 12:02:43;;;;;;;1999.90;999.90;;;17.40;99.90;;;;;;5006804;28;20041;-72
2023/05/10 12:05:09;;;;;;;1999.90;999.90;;;17.70;99.90;;;;;;5015541;28;20025;-77
2023/05/10 12:07:35;;;;;;;1999.90;999.90;;;19.20;99.90;;;;;;5009262;28;20038;-78
2023/05/10 12:10:14;;;;;;;1999.90;999.90;;;19.70;99.90;;;;;;5017543;28;20036;-76
2023/05/10 12:12:44;;;;;;;1999.90;999.90;;;19.80;99.90;;;;;;5008707;28;20041;-77
2023/05/10 12:15:12;;;;;;;1999.90;999.90;;;19.70;99.90;;;;;;5007031;28;20028;-73
2023/05/10 12:17:39;;;;;;;1999.90;999.90;;;18.80;99.90;;;;;;5018434;28;20022;-77
2023/05/10 12:20:19;;;;;;;1999.90;999.90;;;18.70;99.90;;;;;;5009672;28;20030;-77
2023/05/10 12:22:46;;;;;;;1999.90;999.90;;;19.30;99.90;;;;;;5008440;28;20041;-77
2023/05/10 12:25:12;;;;;;;1999.90;999.90;;;19.40;99.90;;;;;;5012572;28;20034;-76
2023/05/10 12:27:38;;;;;;;1999.90;999.90;;;19.40;99.90;;;;;;5009781;28;20041;-72
2023/05/10 12:30:04;;;;;;;1999.90;999.90;;;19.00;99.90;;;;;;5013589;28;20030;-77
2023/05/10 12:32:40;;;;;;;1999.90;999.90;;;19.20;99.90;;;;;;5009764;28;20034;-77
2023/05/10 12:35:07;;;;;;;1999.90;999.90;;;19.30;99.90;;;;;;5014908;28;20026;-78
2023/05/10 12:37:35;;;;;;;1999.90;999.90;;;19.40;99.90;;;;;;5012317;28;20401;-77
2023/05/10 12:40:02;;;;;;;1999.90;999.90;;;18.90;99.90;;;;;;5015998;28;20469;-72
2023/05/10 12:42:28;;;;;;;1999.90;999.90;;;19.40;99.90;;;;;;5009654;28;20409;-72
2023/05/10 12:44:57;;;;;;;1999.90;999.90;;;19.60;99.90;;;;;;5012931;28;20033;-77